createdAt,value
2022-11-05T00:00:18.821Z,16.70
2022-11-05T00:02:44.962Z,15.88
2022-11-05T00:05:11.086Z,11.75
2022-11-05T00:07:37.230Z,13.90
2022-11-05T00:10:03.342Z,13.45
2022-11-05T00:12:29.497Z,12.27
2022-11-05T00:14:55.615Z,7.82
2022-11-05T00:17:21.752Z,14.02
2022-11-05T00:19:47.877Z,11.07
2022-11-05T00:22:14.022Z,11.00
2022-11-05T00:24:40.145Z,11.07
2022-11-05T00:27:06.266Z,13.80
2022-11-05T00:29:32.399Z,9.57
2022-11-05T00:31:58.528Z,13.55
2022-11-05T00:34:24.666Z,10.90
2022-11-05T00:36:50.790Z,9.63
2022-11-05T00:39:16.958Z,9.10
2022-11-05T00:41:43.075Z,10.70
2022-11-05T00:44:09.202Z,10.38
2022-11-05T00:46:35.357Z,12.57
2022-11-05T00:49:01.496Z,9.45
2022-11-05T00:51:27.623Z,11.02
2022-11-05T00:53:53.761Z,12.20
2022-11-05T00:56:19.905Z,14.52
2022-11-05T00:58:46.007Z,12.25
2022-11-05T01:01:12.194Z,12.88
2022-11-05T01:03:38.362Z,13.10
2022-11-05T01:06:04.498Z,12.60
2022-11-05T01:08:30.614Z,15.18
2022-11-05T01:10:56.736Z,13.00
2022-11-05T01:13:22.861Z,9.70
2022-11-05T01:15:48.963Z,11.05
2022-11-05T01:18:15.089Z,13.20
2022-11-05T01:20:41.235Z,11.45
2022-11-05T01:23:12.147Z,11.15
2022-11-05T01:25:39.514Z,10.35
2022-11-05T01:28:05.630Z,14.50
2022-11-05T01:30:31.752Z,13.63
2022-11-05T01:32:57.875Z,9.30
2022-11-05T01:35:24.010Z,12.32
2022-11-05T01:37:50.132Z,7.65
2022-11-05T01:40:16.263Z,12.18
2022-11-05T01:42:42.389Z,10.60
2022-11-05T01:45:08.508Z,8.95
2022-11-05T01:47:34.647Z,15.75
2022-11-05T01:50:00.784Z,8.95
2022-11-05T01:52:26.930Z,11.02
2022-11-05T01:54:53.037Z,10.77
2022-11-05T01:57:19.168Z,7.72
2022-11-05T01:59:45.268Z,8.63
2022-11-05T02:02:11.533Z,7.53
2022-11-05T02:04:37.801Z,9.65
2022-11-05T02:07:03.913Z,14.43
2022-11-05T02:09:30.032Z,7.72
2022-11-05T02:11:56.167Z,9.40
2022-11-05T02:14:22.308Z,9.40
2022-11-05T02:16:48.463Z,7.53
2022-11-05T02:19:14.572Z,9.40
2022-11-05T02:21:40.680Z,8.75
2022-11-05T02:24:06.817Z,12.02
2022-11-05T02:26:32.934Z,8.57
2022-11-05T02:28:59.072Z,9.93
2022-11-05T02:31:25.184Z,9.63
2022-11-05T02:33:51.311Z,11.38
2022-11-05T02:36:17.442Z,9.43
2022-11-05T02:38:43.571Z,16.73
2022-11-05T02:41:09.690Z,11.25
2022-11-05T02:43:35.800Z,10.77
2022-11-05T02:46:01.954Z,8.27
2022-11-05T02:48:28.435Z,10.07
2022-11-05T02:50:54.541Z,15.55
2022-11-05T02:53:20.683Z,7.55
2022-11-05T02:55:46.835Z,8.27
2022-11-05T02:58:12.936Z,11.02
2022-11-05T03:00:39.097Z,9.85
2022-11-05T03:03:05.334Z,10.45
2022-11-05T03:05:31.482Z,10.30
2022-11-05T03:07:57.599Z,11.60
2022-11-05T03:10:23.704Z,10.07
2022-11-05T03:12:51.190Z,9.27
2022-11-05T03:15:19.484Z,11.85
2022-11-05T03:17:45.585Z,10.50
2022-11-05T03:20:11.713Z,10.55
2022-11-05T03:22:37.874Z,16.63
2022-11-05T03:25:03.993Z,12.30
2022-11-05T03:27:30.104Z,10.98
2022-11-05T03:29:56.266Z,13.02
2022-11-05T03:32:22.387Z,11.02
2022-11-05T03:34:48.511Z,13.15
2022-11-05T03:37:14.675Z,13.90
2022-11-05T03:39:40.779Z,12.15
2022-11-05T03:42:06.931Z,12.63
2022-11-05T03:44:33.095Z,10.95
2022-11-05T03:46:59.204Z,13.82
2022-11-05T03:49:25.306Z,17.20
2022-11-05T03:51:51.441Z,13.50
2022-11-05T03:54:17.596Z,16.83
2022-11-05T03:56:43.738Z,15.45
2022-11-05T03:59:09.868Z,15.10
2022-11-05T04:01:36.098Z,16.75
2022-11-05T04:04:02.351Z,19.45
2022-11-05T04:06:28.499Z,13.30
2022-11-05T04:08:54.603Z,16.02
2022-11-05T04:11:20.721Z,16.67
2022-11-05T04:13:46.851Z,18.27
2022-11-05T04:16:12.964Z,18.25
2022-11-05T04:18:39.089Z,15.15
2022-11-05T04:21:05.220Z,17.40
2022-11-05T04:23:31.357Z,18.65
2022-11-05T04:25:57.514Z,12.90
2022-11-05T04:28:23.624Z,15.77
2022-11-05T04:30:49.742Z,16.30
2022-11-05T04:33:15.900Z,15.00
2022-11-05T04:35:42.041Z,14.20
2022-11-05T04:38:08.146Z,17.92
2022-11-05T04:40:34.288Z,12.88
2022-11-05T04:43:00.410Z,17.95
2022-11-05T04:45:26.568Z,12.98
2022-11-05T04:47:52.683Z,12.02
2022-11-05T04:50:18.818Z,11.20
2022-11-05T04:52:44.959Z,14.43
2022-11-05T04:55:11.081Z,12.82
2022-11-05T04:57:37.194Z,11.82
2022-11-05T05:00:03.332Z,12.13
2022-11-05T05:02:29.464Z,10.10
2022-11-05T05:04:55.615Z,9.48
2022-11-05T05:07:21.728Z,8.63
2022-11-05T05:09:47.862Z,8.77
2022-11-05T05:12:13.976Z,10.73
2022-11-05T05:14:40.120Z,10.45
2022-11-05T05:17:06.231Z,13.23
2022-11-05T05:19:32.357Z,8.95
2022-11-05T05:21:58.483Z,10.02
2022-11-05T05:24:24.589Z,7.13
2022-11-05T05:26:50.734Z,9.18
2022-11-05T05:29:16.893Z,7.80
2022-11-05T05:31:43.007Z,6.88
2022-11-05T05:34:09.230Z,8.32
2022-11-05T05:36:35.341Z,6.80
2022-11-05T05:39:01.473Z,7.28
2022-11-05T05:41:27.636Z,8.73
2022-11-05T05:43:53.745Z,6.03
2022-11-05T05:46:19.901Z,5.93
2022-11-05T05:48:46.047Z,8.70
2022-11-05T05:51:12.162Z,7.65
2022-11-05T05:53:38.402Z,8.68
2022-11-05T05:56:04.513Z,7.65
2022-11-05T05:58:30.657Z,7.65
2022-11-05T06:00:56.828Z,7.88
2022-11-05T06:03:22.951Z,7.47
2022-11-05T06:05:49.086Z,6.35
2022-11-05T06:08:15.207Z,5.68
2022-11-05T06:10:41.388Z,7.22
2022-11-05T06:13:07.595Z,7.25
2022-11-05T06:15:36.063Z,7.07
2022-11-05T06:18:02.390Z,9.85
2022-11-05T06:20:28.521Z,7.20
2022-11-05T06:22:54.690Z,6.18
2022-11-05T06:25:20.783Z,6.40
2022-11-05T06:27:46.889Z,6.55
2022-11-05T06:30:13.020Z,5.28
2022-11-05T06:32:39.134Z,6.50
2022-11-05T06:35:05.260Z,6.63
2022-11-05T06:37:31.463Z,5.32
2022-11-05T06:39:57.592Z,5.80
2022-11-05T06:42:23.706Z,6.20
2022-11-05T06:44:49.846Z,6.35
2022-11-05T06:47:15.982Z,6.22
2022-11-05T06:49:42.136Z,5.32
2022-11-05T06:52:08.262Z,6.47
2022-11-05T06:54:34.377Z,5.57
2022-11-05T06:57:00.540Z,6.38
2022-11-05T06:59:26.658Z,7.40
2022-11-05T07:01:52.855Z,6.82
2022-11-05T07:04:18.990Z,10.98
2022-11-05T07:06:45.137Z,8.13
2022-11-05T07:09:11.242Z,6.85
2022-11-05T07:11:37.392Z,8.63
2022-11-05T07:14:03.531Z,7.97
2022-11-05T07:16:29.651Z,9.00
2022-11-05T07:18:55.803Z,9.65
2022-11-05T07:21:21.944Z,24.50
2022-11-05T07:23:48.071Z,10.13
2022-11-05T07:26:14.175Z,9.43
2022-11-05T07:28:40.306Z,11.00
2022-11-05T07:31:06.429Z,12.80
2022-11-05T07:33:36.476Z,11.15
2022-11-05T07:36:02.977Z,19.90
2022-11-05T07:38:29.112Z,11.98
2022-11-05T07:40:55.243Z,12.25
2022-11-05T07:43:21.352Z,8.93
2022-11-05T07:45:47.486Z,11.65
2022-11-05T07:48:13.606Z,10.98
2022-11-05T07:50:39.747Z,10.27
2022-11-05T07:53:05.889Z,15.07
2022-11-05T07:55:32.014Z,7.45
2022-11-05T07:57:58.144Z,9.65
2022-11-05T08:00:24.289Z,8.27
2022-11-05T08:02:50.692Z,9.88
2022-11-05T08:05:17.021Z,9.63
2022-11-05T08:07:43.153Z,9.35
2022-11-05T08:10:09.302Z,7.93
2022-11-05T08:12:35.418Z,7.90
2022-11-05T08:15:01.569Z,7.30
2022-11-05T08:17:27.707Z,9.13
2022-11-05T08:19:53.817Z,6.45
2022-11-05T08:22:19.973Z,8.65
2022-11-05T08:24:46.122Z,8.60
2022-11-05T08:27:12.250Z,7.47
2022-11-05T08:29:38.390Z,8.77
2022-11-05T08:32:04.517Z,8.02
2022-11-05T08:34:30.651Z,7.07
2022-11-05T08:36:57.085Z,6.78
2022-11-05T08:39:23.243Z,7.90
2022-11-05T08:41:49.403Z,7.82
2022-11-05T08:44:15.528Z,9.07
2022-11-05T08:46:41.961Z,7.50
2022-11-05T08:49:08.142Z,7.47
2022-11-05T08:51:34.258Z,7.05
2022-11-05T08:54:00.423Z,6.97
2022-11-05T08:56:26.533Z,8.85
2022-11-05T08:58:52.652Z,7.53
2022-11-05T09:01:18.896Z,7.80
2022-11-05T09:03:45.564Z,9.40
2022-11-05T09:06:11.701Z,8.50
2022-11-05T09:08:38.229Z,9.35
2022-11-05T09:11:04.384Z,11.85
2022-11-05T09:13:30.497Z,11.38
2022-11-05T09:15:56.620Z,8.60
2022-11-05T09:18:22.746Z,11.85
2022-11-05T09:20:48.921Z,10.52
2022-11-05T09:23:15.179Z,8.90
2022-11-05T09:25:41.391Z,8.95
2022-11-05T09:28:07.561Z,14.45
2022-11-05T09:30:33.708Z,11.55
2022-11-05T09:32:59.824Z,10.93
2022-11-05T09:35:25.966Z,12.43
2022-11-05T09:37:54.559Z,13.27
2022-11-05T09:40:24.356Z,12.88
2022-11-05T09:42:50.670Z,11.02
2022-11-05T09:45:16.816Z,10.27
2022-11-05T09:47:42.938Z,10.57
2022-11-05T09:50:09.067Z,9.60
2022-11-05T09:52:35.214Z,9.40
2022-11-05T09:55:01.340Z,11.50
2022-11-05T09:57:27.483Z,13.05
2022-11-05T09:59:53.657Z,10.70
2022-11-05T10:02:19.789Z,11.15
2022-11-05T10:04:45.981Z,15.73
2022-11-05T10:07:12.140Z,10.25
2022-11-05T10:09:38.317Z,13.23
2022-11-05T10:12:04.438Z,12.93
2022-11-05T10:14:30.552Z,8.95
2022-11-05T10:16:56.690Z,9.23
2022-11-05T10:19:22.808Z,10.73
2022-11-05T10:22:05.992Z,15.75
2022-11-05T10:24:33.171Z,8.30
2022-11-05T10:26:59.303Z,18.10
2022-11-05T10:29:25.430Z,14.50
2022-11-05T10:31:51.567Z,11.05
2022-11-05T10:34:17.709Z,11.27
2022-11-05T10:36:43.927Z,11.13
2022-11-05T10:41:53.790Z,14.48
2022-11-05T10:44:19.923Z,9.63
2022-11-05T10:46:46.042Z,10.32
2022-11-05T10:49:12.164Z,12.20
2022-11-05T10:51:38.281Z,17.05
2022-11-05T10:54:04.431Z,8.70
2022-11-05T10:56:30.567Z,13.15
2022-11-05T10:58:56.670Z,12.52
2022-11-05T11:01:22.907Z,8.20
2022-11-05T11:03:49.078Z,9.57
2022-11-05T11:06:15.220Z,11.13
2022-11-05T11:08:41.891Z,13.68
2022-11-05T11:11:08.052Z,13.70
2022-11-05T11:13:34.162Z,11.35
2022-11-05T11:16:00.280Z,9.68
2022-11-05T11:18:26.438Z,10.88
2022-11-05T11:20:52.567Z,10.88
2022-11-05T11:23:18.686Z,6.95
2022-11-05T11:25:44.828Z,9.85
2022-11-05T11:28:10.989Z,7.22
2022-11-05T11:30:37.115Z,10.05
2022-11-05T11:33:03.240Z,11.00
2022-11-05T11:35:29.384Z,6.80
2022-11-05T11:37:55.510Z,7.15
2022-11-05T11:40:21.635Z,6.55
2022-11-05T11:42:47.759Z,8.65
2022-11-05T11:45:13.917Z,7.70
2022-11-05T11:47:40.034Z,7.05
2022-11-05T11:50:06.167Z,5.05
2022-11-05T11:52:32.311Z,11.27
2022-11-05T11:54:58.419Z,6.70
2022-11-05T11:57:24.559Z,8.00
2022-11-05T12:02:36.837Z,6.65
2022-11-05T12:05:03.035Z,4.25
2022-11-05T12:07:29.189Z,5.72
2022-11-05T12:09:55.336Z,5.40
2022-11-05T12:12:21.491Z,9.25
2022-11-05T12:14:47.642Z,5.30
2022-11-05T12:17:13.746Z,7.07
2022-11-05T12:19:39.867Z,4.35
2022-11-05T12:22:05.996Z,5.75
2022-11-05T12:24:32.100Z,5.00
2022-11-05T12:26:58.215Z,5.53
2022-11-05T12:29:24.335Z,8.85
2022-11-05T12:31:50.454Z,4.88
2022-11-05T12:34:16.594Z,5.45
2022-11-05T12:36:42.707Z,3.47
2022-11-05T12:39:08.895Z,3.67
2022-11-05T12:41:35.090Z,6.97
2022-11-05T12:44:01.206Z,4.63
2022-11-05T12:46:27.343Z,3.92
2022-11-05T12:48:53.601Z,5.65
2022-11-05T12:51:19.748Z,4.95
2022-11-05T12:53:45.879Z,3.58
2022-11-05T12:56:11.997Z,3.00
2022-11-05T12:58:38.111Z,8.10
2022-11-05T13:01:04.290Z,7.35
2022-11-05T13:03:30.503Z,4.25
2022-11-05T13:06:00.196Z,5.05
2022-11-05T13:08:29.150Z,3.90
2022-11-05T13:10:55.265Z,4.15
2022-11-05T13:13:21.404Z,4.22
2022-11-05T13:15:47.538Z,4.80
2022-11-05T13:18:13.663Z,3.28
2022-11-05T13:20:39.827Z,5.50
2022-11-05T13:23:05.960Z,4.93
2022-11-05T13:25:32.130Z,8.13
2022-11-05T13:27:58.266Z,5.85
2022-11-05T13:30:24.441Z,4.85
2022-11-05T13:32:50.557Z,3.38
2022-11-05T13:35:16.662Z,5.03
2022-11-05T13:37:42.814Z,3.92
2022-11-05T13:40:10.584Z,6.97
2022-11-05T13:42:44.128Z,5.47
2022-11-05T13:45:10.315Z,4.25
2022-11-05T13:47:38.033Z,4.10
2022-11-05T13:50:04.301Z,4.35
2022-11-05T13:52:30.461Z,3.95
2022-11-05T13:54:56.585Z,6.50
2022-11-05T13:57:22.741Z,4.25
2022-11-05T13:59:48.848Z,6.57
2022-11-05T14:02:15.116Z,8.95
2022-11-05T14:04:41.360Z,6.43
2022-11-05T14:07:07.495Z,7.43
2022-11-05T14:09:33.646Z,6.03
2022-11-05T14:11:59.758Z,6.60
2022-11-05T14:14:25.924Z,5.47
2022-11-05T14:16:52.037Z,6.50
2022-11-05T14:19:18.198Z,5.20
2022-11-05T14:21:44.311Z,3.95
2022-11-05T14:24:10.468Z,5.93
2022-11-05T14:26:36.583Z,5.50
2022-11-05T14:29:02.750Z,6.90
2022-11-05T14:31:47.269Z,5.63
2022-11-05T14:36:58.728Z,4.78
2022-11-05T14:39:24.841Z,6.10
2022-11-05T14:41:50.981Z,8.55
2022-11-05T14:44:17.120Z,6.13
2022-11-05T14:46:43.250Z,8.52
2022-11-05T14:49:09.845Z,6.90
2022-11-05T14:51:36.125Z,7.78
2022-11-05T14:54:02.243Z,5.78
2022-11-05T14:56:28.371Z,6.20
2022-11-05T14:58:54.514Z,6.10
2022-11-05T15:01:20.695Z,9.23
2022-11-05T15:03:47.532Z,5.20
2022-11-05T15:06:13.750Z,6.22
2022-11-05T15:08:39.900Z,9.02
2022-11-05T15:11:06.063Z,5.97
2022-11-05T15:13:32.183Z,10.02
2022-11-05T15:15:58.307Z,8.23
2022-11-05T15:18:24.479Z,8.10
2022-11-05T15:20:50.626Z,7.15
2022-11-05T15:23:16.743Z,7.88
2022-11-05T15:25:42.878Z,10.07
2022-11-05T15:28:09.011Z,7.28
2022-11-05T15:30:35.157Z,6.03
2022-11-05T15:33:01.314Z,7.15
2022-11-05T15:35:27.458Z,8.75
2022-11-05T15:37:58.806Z,9.40
2022-11-05T15:40:27.747Z,5.88
2022-11-05T15:42:53.863Z,8.05
2022-11-05T15:45:19.988Z,7.38
2022-11-05T15:47:46.143Z,5.20
2022-11-05T15:50:14.705Z,7.50
2022-11-05T15:52:41.207Z,8.70
2022-11-05T15:55:07.349Z,10.55
2022-11-05T15:57:33.471Z,7.38
2022-11-05T15:59:59.625Z,7.32
2022-11-05T16:02:25.807Z,9.30
2022-11-05T16:04:52.034Z,7.82
2022-11-05T16:07:18.193Z,9.23
2022-11-05T16:09:44.336Z,6.65
2022-11-05T16:12:10.449Z,11.10
2022-11-05T16:14:36.593Z,6.82
2022-11-05T16:17:02.739Z,8.70
2022-11-05T16:19:28.884Z,7.20
2022-11-05T16:21:55.037Z,8.77
2022-11-05T16:24:25.229Z,10.55
2022-11-05T16:27:03.032Z,7.93
2022-11-05T16:29:29.752Z,14.70
2022-11-05T16:31:55.902Z,7.30
2022-11-05T16:34:22.059Z,11.23
2022-11-05T16:36:48.201Z,6.97
2022-11-05T16:39:14.344Z,11.27
2022-11-05T16:41:40.507Z,9.65
2022-11-05T16:44:06.622Z,11.20
2022-11-05T16:46:32.745Z,8.77
2022-11-05T16:48:58.906Z,8.55
2022-11-05T16:51:27.492Z,7.30
2022-11-05T16:53:53.825Z,9.35
2022-11-05T16:56:19.953Z,6.55
2022-11-05T16:58:46.107Z,7.60
2022-11-05T17:01:12.276Z,8.73
2022-11-05T17:03:38.431Z,7.20
2022-11-05T17:06:04.588Z,9.80
2022-11-05T17:08:30.821Z,8.00
2022-11-05T17:10:56.946Z,8.20
2022-11-05T17:13:23.081Z,8.00
2022-11-05T17:15:49.220Z,8.52
2022-11-05T17:18:18.858Z,11.27
2022-11-05T17:20:46.763Z,5.75
2022-11-05T17:23:13.200Z,16.35
2022-11-05T17:25:39.733Z,9.07
2022-11-05T17:28:05.952Z,9.85
2022-11-05T17:30:32.173Z,8.88
2022-11-05T17:32:58.351Z,6.88
2022-11-05T17:35:24.569Z,7.47
2022-11-05T17:37:50.704Z,10.43
2022-11-05T17:40:16.822Z,8.45
2022-11-05T17:42:42.933Z,11.85
2022-11-05T17:45:09.060Z,12.13
2022-11-05T17:47:35.291Z,6.90
2022-11-05T17:50:01.478Z,8.95
2022-11-05T17:52:27.629Z,11.52
2022-11-05T17:54:53.796Z,9.48
2022-11-05T17:57:19.935Z,7.95
2022-11-05T17:59:46.039Z,13.55
2022-11-05T18:02:12.320Z,19.60
2022-11-05T18:04:38.519Z,15.80
2022-11-05T18:07:04.646Z,8.75
2022-11-05T18:09:30.780Z,9.88
2022-11-05T18:11:56.937Z,11.52
2022-11-05T18:14:24.277Z,11.57
2022-11-05T18:16:50.529Z,19.45
2022-11-05T18:19:16.670Z,18.85
2022-11-05T18:21:42.795Z,17.73
2022-11-05T18:24:08.937Z,14.95
2022-11-05T18:26:35.085Z,9.93
2022-11-05T18:29:01.270Z,9.48
2022-11-05T18:31:27.393Z,11.63
2022-11-05T18:33:53.512Z,14.75
2022-11-05T18:36:19.629Z,14.07
2022-11-05T18:38:45.774Z,9.98
2022-11-05T18:41:11.914Z,11.48
2022-11-05T18:43:38.025Z,12.95
2022-11-05T18:46:06.896Z,16.00
2022-11-05T18:48:33.024Z,15.00
2022-11-05T18:51:01.863Z,19.05
2022-11-05T18:53:28.343Z,14.77
2022-11-05T18:55:54.456Z,25.83
2022-11-05T18:58:20.628Z,17.85
2022-11-05T19:00:46.769Z,14.30
2022-11-05T19:03:12.912Z,27.52
2022-11-05T19:05:39.058Z,16.48
2022-11-05T19:08:05.185Z,14.23
2022-11-05T19:10:31.310Z,13.40
2022-11-05T19:12:57.465Z,15.80
2022-11-05T19:15:23.609Z,15.23
2022-11-05T19:17:49.756Z,16.48
2022-11-05T19:20:15.887Z,19.48
2022-11-05T19:22:42.041Z,18.58
2022-11-05T19:25:08.165Z,24.63
2022-11-05T19:27:34.548Z,29.02
2022-11-05T19:30:00.694Z,32.25
2022-11-05T19:32:26.819Z,29.20
2022-11-05T19:34:52.981Z,25.40
2022-11-05T19:37:19.141Z,24.55
2022-11-05T19:39:45.280Z,29.42
2022-11-05T19:42:11.408Z,28.38
2022-11-05T19:44:37.567Z,26.05
2022-11-05T19:47:03.696Z,23.10
2022-11-05T19:49:29.838Z,19.38
2022-11-05T19:51:55.946Z,21.35
2022-11-05T19:54:22.132Z,14.02
2022-11-05T19:56:48.265Z,15.00
2022-11-05T19:59:14.410Z,17.02
2022-11-05T20:01:40.584Z,17.38
2022-11-05T20:04:06.837Z,24.50
2022-11-05T20:06:33.046Z,16.30
2022-11-05T20:09:20.581Z,13.40
2022-11-05T20:11:45.305Z,11.15
2022-11-05T20:14:11.434Z,10.68
2022-11-05T20:16:37.590Z,14.13
2022-11-05T20:19:03.708Z,11.43
2022-11-05T20:21:29.832Z,14.52
2022-11-05T20:23:56.003Z,18.27
2022-11-05T20:26:22.114Z,19.00
2022-11-05T20:28:48.266Z,15.60
2022-11-05T20:31:14.385Z,16.67
2022-11-05T20:33:40.542Z,18.45
2022-11-05T20:36:06.660Z,14.75
2022-11-05T20:38:32.782Z,18.38
2022-11-05T20:40:58.942Z,22.27
2022-11-05T20:43:30.142Z,17.48
2022-11-05T20:45:56.729Z,14.15
2022-11-05T20:48:22.839Z,21.63
2022-11-05T20:50:48.980Z,16.98
2022-11-05T20:53:15.164Z,19.27
2022-11-05T20:55:41.289Z,15.13
2022-11-05T20:58:07.438Z,18.30
2022-11-05T21:00:33.574Z,18.33
2022-11-05T21:02:59.749Z,16.45
2022-11-05T21:05:28.891Z,16.08
2022-11-05T21:10:23.581Z,16.27
2022-11-05T21:12:49.705Z,15.63
2022-11-05T21:15:15.832Z,14.23
2022-11-05T21:17:41.973Z,18.15
2022-11-05T21:20:08.110Z,19.73
2022-11-05T21:22:34.224Z,18.10
2022-11-05T21:25:00.440Z,15.68
2022-11-05T21:27:26.557Z,14.13
2022-11-05T21:29:52.677Z,18.85
2022-11-05T21:32:18.831Z,15.65
2022-11-05T21:34:44.968Z,17.98
2022-11-05T21:37:11.079Z,17.50
2022-11-05T21:39:37.202Z,22.52
2022-11-05T21:42:03.346Z,16.30
2022-11-05T21:44:29.464Z,20.75
2022-11-05T21:46:55.619Z,18.65
2022-11-05T21:49:21.753Z,15.45
2022-11-05T21:51:47.882Z,14.93
2022-11-05T21:54:14.003Z,13.07
2022-11-05T21:56:40.140Z,18.45
2022-11-05T21:59:06.261Z,15.18
2022-11-05T22:01:32.499Z,16.40
2022-11-05T22:04:02.869Z,20.48
2022-11-05T22:06:29.476Z,20.08
2022-11-05T22:08:55.609Z,17.63
2022-11-05T22:11:21.721Z,19.48
2022-11-05T22:13:47.893Z,16.40
2022-11-05T22:16:14.022Z,15.55
2022-11-05T22:18:40.172Z,16.77
2022-11-05T22:21:06.297Z,15.50
2022-11-05T22:23:32.424Z,14.68
2022-11-05T22:25:58.570Z,15.63
2022-11-05T22:28:24.707Z,17.05
2022-11-05T22:30:50.833Z,11.80
2022-11-05T22:33:16.997Z,17.52
2022-11-05T22:35:43.262Z,15.73
2022-11-05T22:38:09.692Z,15.88
2022-11-05T22:40:35.948Z,17.92
2022-11-05T22:43:02.058Z,15.02
2022-11-05T22:45:28.395Z,12.30
2022-11-05T22:47:54.598Z,15.55
2022-11-05T22:50:20.739Z,13.27
2022-11-05T22:52:46.881Z,14.35
2022-11-05T22:55:12.991Z,12.95
2022-11-05T22:57:39.153Z,17.67
2022-11-05T23:00:05.288Z,13.43
2022-11-05T23:02:31.486Z,13.50
2022-11-05T23:04:57.720Z,16.50
2022-11-05T23:07:27.666Z,14.68
2022-11-05T23:09:54.231Z,15.57
2022-11-05T23:12:20.372Z,12.55
2022-11-05T23:14:46.490Z,16.08
2022-11-05T23:17:12.626Z,14.00
2022-11-05T23:19:38.788Z,17.80
2022-11-05T23:22:04.897Z,17.60
2022-11-05T23:24:31.030Z,19.58
2022-11-05T23:26:57.189Z,14.82
2022-11-05T23:29:23.291Z,17.55
2022-11-05T23:31:49.407Z,21.42
2022-11-05T23:34:15.545Z,17.42
2022-11-05T23:36:41.682Z,16.98
2022-11-05T23:39:07.814Z,19.20
2022-11-05T23:41:33.988Z,16.45
2022-11-05T23:44:00.114Z,22.35
2022-11-05T23:46:26.245Z,21.30
2022-11-05T23:48:52.406Z,19.02
2022-11-05T23:51:18.517Z,14.32
2022-11-05T23:53:44.646Z,12.23
2022-11-05T23:56:10.793Z,15.15
2022-11-05T23:58:36.913Z,15.15
